메인 페이지
METAR-TAF:

METAR-TAF

공항 :

엘살바도르 국제공항

엘살바도르, 엘살바도르

위도: 13-26N, 경도: 089-03W, 고도: 25m

현재 날씨관측

예보는 15분 전, 05:50시(UTC)에 발표되었습니다.
북북동3kt풍과 풍을 오가는
온도 26°C
습도 84%
기압 1014 hPa
시정 10km 이상
1500m 미만 상공 구름 및 적란운 없음

METAR: MSLP 170550Z 02003KT 350V080 CAVOK 26/23 Q1013 A2993 NOSIG

시각: 00:05 (06:05 UTC)

예보

예보는 2 시간 40분 전, 03:25시(UTC)에 발표되었습니다.
예보 대상 시간: 17일 06시부터 18일 06시까지 (UTC)
북동6kt
시정 10km 이상
고도 7000ft 상공 구름 보통
17일 1200시부터 (UTC)
시정 10km 이상
1500m 미만 상공 구름 및 적란운 없음
17일 1800시부터 (UTC)
남남서10kt
시정 10km 이상
고도 6000ft 상공 구름 조금
18일 0000시부터 (UTC)
여러 방향의 바람 3kt
시정 10km 이상
고도 7000ft 상공 구름 보통

TAF: MSLP 170325Z 1706/1806 05006KT 9999 SCT070 TX35/1718Z TN24/1710Z FM171200 CAVOK FM171800 20010KT 9999 FEW060 FM180000 VRB03KT 9999 SCT070

4,000개 이상의 공항 관측 자료 및 예보 (METAR 및 TAF 보고).

지도상에서 검색 가능한 기상관측소가 노란 점과 빨간 점으로 표시되어 있습니다.

기상관측소 명을 보려면 표시 위로 마우스를 이동하세요.

날씨 관측과 예보를 보려면 클릭하세요.

지도 변경 : 확대하려면 엑스 표시가 있는 녹색 버튼, 축소하려면 빼기 표시가 있는 녹색 버튼, 다음 페이지의 지도를 보려면 녹색 화살표를 클릭하세요.


METAR-TAF: